Du har inga inställningar för hoppväder.nu

Hoppväder.nu

Senast uppdaterat 01:13

UTC-tid

2019-12-06 kl. 00:13


Sol och måne

Solen går upp 9:11 och går ner 13:50 (beräknade cirkatider)
Nästa fullmåne blir om 6 dagar (2019-12-12)

METAR

ESNU (Umeå)
(23 minuter sedan)
ESNU 052350Z 22005KT CAVOK M00/M03 Q0981 RWY 14 ICE 0-10 PCT FCT 0.65=



ESNO (Örnsköldsvik)
(23 minuter sedan)
ESNO 052350Z AUTO 23007KT 9999 NCD M01/M04 Q0982=



ESNS (Skellefteå)
(23 minuter sedan)
ESNS 052350Z AUTO 25010KT 9999 NCD 01/M04 Q0979=









TAF

ESNU (Umeå)
(43 minuter sedan)
ESNU 052330Z 0600/0609 23008KT CAVOK=



ESNO (Örnsköldsvik)
(223 minuter sedan)
ESNO 052030Z 0521/0523 23008KT CAVOK=



ESNS (Skellefteå)
(223 minuter sedan)
ESNS 052030Z 0521/0523 24008KT CAVOK=





Kodnycklar till TAF och METAR






LHP

(Umeå är område A1c i Norra delen)

Prognos är inte uppdaterad




Spotting

Hur fungerar spotthjälpen och Vindkartan?

Markvind är ca 0 m/s.



Vindkartan

Senast uppdaterad 01:13




All data kommer från LFV.se